Time;durP1;ratioP1;P1;durP2;ratioP2;P2;SDS_P1;SDS_P2;PMS_P1;PMS_P2;Temp;Humidity;BMP_temperature;BMP_pressure;BME280_temperature;BME280_humidity;BME280_pressure;Samples;Min_cycle;Max_cycle;Signal;HPM_P1;HPM_P2
2022/03/17 00:02:09;;;;;;;28.90;18.90;;;14.00;99.90;;;;;;6246433;23;20465;-91
2022/03/17 00:04:35;;;;;;;32.00;20.90;;;14.00;99.90;;;;;;6246340;23;20244;-91
2022/03/17 00:07:02;;;;;;;33.97;20.40;;;14.00;99.90;;;;;;6246301;23;20163;-91
2022/03/17 00:09:27;;;;;;;35.47;20.27;;;14.00;99.90;;;;;;6246583;23;20564;-91
2022/03/17 00:11:53;;;;;;;32.90;20.53;;;14.00;99.90;;;;;;6246308;23;20156;-91
2022/03/17 00:14:20;;;;;;;33.00;20.03;;;14.10;99.90;;;;;;6246391;23;20146;-91
2022/03/17 00:16:46;;;;;;;29.07;20.30;;;14.20;99.90;;;;;;6246577;23;20173;-91
2022/03/17 00:19:12;;;;;;;36.07;20.43;;;14.20;99.90;;;;;;6245495;23;20570;-91
2022/03/17 00:21:39;;;;;;;41.00;23.23;;;14.00;99.90;;;;;;6246078;23;20146;-91
2022/03/17 00:24:09;;;;;;;34.43;21.40;;;13.90;99.90;;;;;;6246244;23;20153;-87
2022/03/17 00:26:36;;;;;;;33.53;21.43;;;13.70;99.90;;;;;;6245933;23;20146;-87
2022/03/17 00:29:03;;;;;;;40.90;22.27;;;13.70;99.90;;;;;;6246344;23;20145;-88
2022/03/17 00:31:29;;;;;;;36.17;21.40;;;13.80;99.90;;;;;;6246190;23;20578;-88
2022/03/17 00:33:55;;;;;;;36.07;22.70;;;13.80;99.90;;;;;;6246170;23;20180;-88
2022/03/17 00:36:20;;;;;;;38.13;22.00;;;13.90;99.90;;;;;;6246020;22;20193;-88
2022/03/17 00:38:46;;;;;;;35.83;22.30;;;13.90;99.90;;;;;;6246413;23;20154;-87
2022/03/17 00:41:12;;;;;;;36.67;21.50;;;13.80;99.90;;;;;;6245890;23;20182;-88
2022/03/17 00:43:38;;;;;;;40.77;23.97;;;13.90;99.90;;;;;;6246136;23;20168;-87
2022/03/17 00:46:03;;;;;;;39.40;22.20;;;13.80;99.90;;;;;;6245994;23;20158;-87
2022/03/17 00:48:29;;;;;;;36.33;23.33;;;13.70;99.90;;;;;;6246200;23;20191;-87
2022/03/17 00:50:55;;;;;;;40.07;23.10;;;13.50;99.90;;;;;;6246159;23;20146;-87
2022/03/17 00:53:20;;;;;;;34.50;22.23;;;13.50;99.90;;;;;;6246005;23;20141;-87
2022/03/17 00:55:46;;;;;;;37.60;22.40;;;13.50;99.90;;;;;;6245966;23;20176;-88
2022/03/17 00:58:12;;;;;;;34.00;21.90;;;13.60;99.90;;;;;;6245947;23;20181;-87
2022/03/17 01:00:38;;;;;;;38.17;24.53;;;13.70;99.90;;;;;;6245855;23;20146;-87
2022/03/17 01:03:05;;;;;;;41.73;24.00;;;13.70;99.90;;;;;;6246087;23;20149;-88
2022/03/17 01:05:31;;;;;;;37.87;22.63;;;13.70;99.90;;;;;;6246123;23;20145;-87
2022/03/17 01:07:58;;;;;;;37.17;22.77;;;13.70;99.90;;;;;;6245872;23;20154;-88
2022/03/17 01:10:24;;;;;;;36.77;23.27;;;13.60;99.90;;;;;;6245395;23;20141;-87
2022/03/17 01:12:50;;;;;;;35.87;23.77;;;13.60;99.90;;;;;;6245867;23;20152;-87
2022/03/17 01:15:17;;;;;;;36.57;22.27;;;13.60;99.90;;;;;;6245751;23;20469;-87
2022/03/17 01:17:44;;;;;;;31.70;21.77;;;13.70;99.90;;;;;;6245607;23;20270;-87
2022/03/17 01:20:11;;;;;;;33.27;21.47;;;13.60;99.90;;;;;;6245279;23;20160;-86
2022/03/17 01:22:37;;;;;;;36.03;21.77;;;13.60;99.90;;;;;;6245703;23;20151;-87
2022/03/17 01:25:05;;;;;;;33.20;19.73;;;13.50;99.90;;;;;;6245434;23;20146;-87
2022/03/17 01:27:31;;;;;;;30.37;20.03;;;13.40;99.90;;;;;;6245795;23;20158;-87
2022/03/17 01:29:56;;;;;;;23.43;16.83;;;13.40;99.90;;;;;;6245490;23;20230;-87
2022/03/17 01:32:25;;;;;;;23.60;16.07;;;13.20;99.90;;;;;;6245772;23;20141;-87
2022/03/17 01:34:51;;;;;;;26.37;17.80;;;13.00;99.90;;;;;;6245528;23;20154;-87
2022/03/17 01:37:17;;;;;;;17.93;14.20;;;13.00;99.90;;;;;;6245352;22;20210;-87
2022/03/17 01:39:43;;;;;;;21.13;14.63;;;13.00;99.90;;;;;;6245030;23;20631;-87
2022/03/17 01:42:10;;;;;;;21.83;15.80;;;12.90;99.90;;;;;;6245682;23;20144;-87
2022/03/17 01:44:37;;;;;;;22.53;17.37;;;12.70;99.90;;;;;;6245257;23;20572;-87
2022/03/17 01:49:47;;;;;;;24.17;17.53;;;12.20;99.90;;;;;;6246524;23;20186;-87
2022/03/17 01:52:13;;;;;;;26.77;18.97;;;12.10;99.90;;;;;;6245531;23;20524;-87
2022/03/17 01:54:40;;;;;;;23.00;18.37;;;12.00;99.90;;;;;;6245333;23;20150;-87
2022/03/17 01:57:08;;;;;;;24.20;18.23;;;11.90;99.90;;;;;;6245484;23;20198;-87
2022/03/17 01:59:36;;;;;;;27.10;18.20;;;11.60;99.90;;;;;;6245475;23;20174;-87
2022/03/17 02:02:04;;;;;;;29.37;18.17;;;11.00;99.90;;;;;;6245227;23;20635;-87
2022/03/17 02:04:30;;;;;;;26.47;18.47;;;10.70;99.90;;;;;;6245364;23;20148;-87
2022/03/17 02:06:56;;;;;;;30.53;19.33;;;10.70;99.90;;;;;;6244916;23;20242;-87
2022/03/17 02:09:26;;;;;;;30.97;17.10;;;10.70;99.90;;;;;;6245348;23;20220;-88
2022/03/17 02:14:48;;;;;;;29.27;18.80;;;10.70;99.90;;;;;;6246745;23;20149;-87
2022/03/17 02:17:14;;;;;;;31.27;18.23;;;10.80;99.90;;;;;;6244902;23;20189;-88
2022/03/17 02:19:41;;;;;;;28.07;17.97;;;11.00;99.90;;;;;;6245614;23;20497;-87
2022/03/17 02:22:10;;;;;;;30.03;19.13;;;11.00;99.90;;;;;;6244791;23;20147;-88
2022/03/17 02:27:21;;;;;;;31.20;18.57;;;10.80;99.90;;;;;;6246401;23;20150;-87
2022/03/17 02:29:47;;;;;;;30.23;18.43;;;10.80;99.90;;;;;;6245270;23;20151;-87
2022/03/17 02:32:14;;;;;;;28.30;17.70;;;10.90;99.90;;;;;;6245259;23;20605;-87
2022/03/17 02:34:40;;;;;;;32.33;19.63;;;10.90;99.90;;;;;;6245486;23;20188;-87
2022/03/17 02:37:05;;;;;;;34.87;18.97;;;10.90;99.90;;;;;;6244441;22;20220;-87
2022/03/17 02:39:31;;;;;;;35.13;21.07;;;11.00;99.90;;;;;;6244616;23;20238;-87
2022/03/17 02:41:56;;;;;;;31.23;19.30;;;11.00;99.90;;;;;;6244820;23;20147;-87
2022/03/17 02:44:22;;;;;;;27.83;17.80;;;11.00;99.90;;;;;;6245047;23;20151;-87
2022/03/17 02:46:48;;;;;;;29.63;18.53;;;10.80;99.90;;;;;;6245078;23;20143;-87
2022/03/17 02:49:15;;;;;;;32.43;18.87;;;10.70;99.90;;;;;;6244914;23;20481;-87
2022/03/17 02:51:42;;;;;;;27.73;17.77;;;10.80;99.90;;;;;;6244509;23;20212;-87
2022/03/17 02:54:08;;;;;;;28.43;17.73;;;10.80;99.90;;;;;;6245495;23;20158;-87
2022/03/17 02:56:34;;;;;;;28.60;18.57;;;10.90;99.90;;;;;;6244838;23;20212;-88
2022/03/17 02:58:59;;;;;;;31.03;17.73;;;10.80;99.90;;;;;;6245026;23;20655;-87
2022/03/17 03:01:25;;;;;;;30.83;18.30;;;11.00;99.90;;;;;;6244065;23;20144;-87
2022/03/17 03:03:50;;;;;;;29.87;18.27;;;10.90;99.90;;;;;;6244774;23;20215;-87
2022/03/17 03:06:16;;;;;;;27.77;17.40;;;10.80;99.90;;;;;;6244380;23;20151;-87
2022/03/17 03:08:43;;;;;;;29.23;18.83;;;10.80;99.90;;;;;;6244926;23;20147;-87
2022/03/17 03:11:08;;;;;;;28.63;17.97;;;10.90;99.90;;;;;;6244833;23;20144;-87
2022/03/17 03:13:35;;;;;;;27.97;17.50;;;10.90;99.90;;;;;;6244659;23;20154;-87
2022/03/17 03:16:01;;;;;;;25.13;17.30;;;10.90;99.90;;;;;;6244895;23;20143;-87
2022/03/17 03:18:27;;;;;;;25.33;16.57;;;10.80;99.90;;;;;;6244517;23;20155;-87
2022/03/17 03:20:53;;;;;;;25.37;17.93;;;10.80;99.90;;;;;;6244613;23;20174;-87
2022/03/17 03:23:18;;;;;;;23.47;16.33;;;10.80;99.90;;;;;;6244520;23;20151;-87
2022/03/17 03:25:44;;;;;;;27.77;16.90;;;11.00;99.90;;;;;;6244730;23;20460;-88
2022/03/17 03:28:11;;;;;;;26.50;15.93;;;11.10;99.90;;;;;;6244704;23;20382;-87
2022/03/17 03:30:37;;;;;;;25.13;16.80;;;11.20;99.90;;;;;;6244604;23;20139;-87
2022/03/17 03:33:06;;;;;;;26.10;16.57;;;11.10;99.90;;;;;;6244773;23;20140;-87
2022/03/17 03:38:18;;;;;;;21.87;15.70;;;11.00;99.90;;;;;;6245792;23;20295;-87
2022/03/17 03:40:45;;;;;;;21.60;14.17;;;11.00;99.90;;;;;;6244665;23;20179;-87
2022/03/17 03:43:10;;;;;;;21.93;14.80;;;11.10;99.90;;;;;;6244613;23;20150;-87
2022/03/17 03:45:36;;;;;;;17.80;12.60;;;11.10;99.90;;;;;;6244604;23;20140;-87
2022/03/17 03:48:02;;;;;;;20.43;12.97;;;11.00;99.90;;;;;;6244419;23;20140;-87
2022/03/17 03:50:30;;;;;;;16.30;12.40;;;11.00;99.90;;;;;;6244358;23;20182;-87
2022/03/17 03:52:55;;;;;;;16.50;12.37;;;11.00;99.90;;;;;;6244482;23;20589;-87
2022/03/17 03:55:21;;;;;;;18.47;11.77;;;10.60;99.90;;;;;;6244522;23;20143;-87
2022/03/17 03:57:48;;;;;;;16.10;12.13;;;10.50;99.90;;;;;;6244513;23;20171;-87
2022/03/17 04:02:56;;;;;;;15.80;11.83;;;10.80;99.90;;;;;;6256043;22;20146;-87
2022/03/17 04:05:28;;;;;;;15.00;11.13;;;10.90;99.90;;;;;;6244305;23;20238;-87
2022/03/17 04:07:56;;;;;;;17.33;11.77;;;11.10;99.90;;;;;;6244678;23;20147;-88
2022/03/17 04:10:22;;;;;;;16.47;10.80;;;11.10;99.90;;;;;;6244732;23;20148;-87
2022/03/17 04:12:48;;;;;;;19.57;12.70;;;11.20;99.90;;;;;;6245328;23;20201;-87
2022/03/17 04:15:14;;;;;;;17.60;11.47;;;11.30;99.90;;;;;;6246311;23;20143;-87
2022/03/17 04:17:40;;;;;;;14.47;11.57;;;11.30;99.90;;;;;;6245778;23;20181;-88
2022/03/17 04:20:06;;;;;;;16.73;12.40;;;11.40;99.90;;;;;;6246391;23;20202;-88
2022/03/17 04:22:32;;;;;;;19.17;12.50;;;11.40;99.90;;;;;;6246378;23;20605;-87
2022/03/17 04:24:57;;;;;;;15.50;12.33;;;11.50;99.90;;;;;;6246240;23;20214;-88
2022/03/17 04:27:23;;;;;;;14.73;11.33;;;11.30;99.90;;;;;;6246423;23;20151;-87
2022/03/17 04:29:48;;;;;;;17.90;12.07;;;11.10;99.90;;;;;;6246348;23;20201;-88
2022/03/17 04:32:14;;;;;;;16.30;11.67;;;11.00;99.90;;;;;;6246099;23;20180;-87
2022/03/17 04:34:40;;;;;;;15.83;11.30;;;11.10;99.90;;;;;;6246214;23;20205;-88
2022/03/17 04:37:06;;;;;;;15.13;11.67;;;10.90;99.90;;;;;;6245913;22;20260;-88
2022/03/17 04:39:31;;;;;;;15.33;11.73;;;10.60;99.90;;;;;;6245946;23;20714;-88
2022/03/17 04:41:57;;;;;;;16.57;11.13;;;10.60;99.90;;;;;;6246273;23;20218;-87
2022/03/17 04:44:24;;;;;;;16.97;11.63;;;10.70;99.90;;;;;;6245820;23;20147;-87
2022/03/17 04:46:50;;;;;;;14.73;11.80;;;10.80;99.90;;;;;;6245768;23;20205;-88
2022/03/17 04:49:16;;;;;;;14.70;11.90;;;10.90;99.90;;;;;;6245701;23;20148;-89
2022/03/17 04:51:42;;;;;;;14.53;11.70;;;10.80;99.90;;;;;;6246033;23;20630;-87
2022/03/17 04:54:08;;;;;;;15.13;11.43;;;10.80;99.90;;;;;;6246378;23;20226;-87
2022/03/17 04:56:34;;;;;;;17.57;10.87;;;10.70;99.90;;;;;;6245838;23;20214;-87
2022/03/17 04:58:59;;;;;;;12.57;9.53;;;10.50;99.90;;;;;;6245911;23;20169;-88
2022/03/17 05:01:25;;;;;;;14.83;10.07;;;10.40;99.90;;;;;;6245754;23;20144;-87
2022/03/17 05:03:51;;;;;;;13.87;10.43;;;10.40;99.90;;;;;;6245780;23;20536;-88
2022/03/17 05:06:18;;;;;;;16.30;11.33;;;10.50;99.90;;;;;;6246095;23;20226;-87
2022/03/17 05:08:44;;;;;;;17.20;9.77;;;10.50;99.90;;;;;;6246117;23;20178;-88
2022/03/17 05:11:10;;;;;;;14.90;9.60;;;10.60;99.90;;;;;;6245874;23;20584;-87
2022/03/17 05:13:37;;;;;;;17.23;9.23;;;10.50;99.90;;;;;;6245770;23;20144;-87
2022/03/17 05:16:07;;;;;;;17.33;9.00;;;10.50;99.90;;;;;;6245457;23;20193;-87
2022/03/17 05:18:33;;;;;;;12.50;9.57;;;10.40;99.90;;;;;;6245770;23;20201;-88
2022/03/17 05:21:00;;;;;;;13.37;8.50;;;10.40;99.90;;;;;;6245752;23;20143;-88
2022/03/17 05:23:25;;;;;;;11.17;8.10;;;10.50;99.90;;;;;;6245493;23;20520;-87
2022/03/17 05:25:52;;;;;;;11.60;8.33;;;10.60;99.90;;;;;;6245458;23;20214;-87
2022/03/17 05:28:19;;;;;;;12.00;7.97;;;10.70;99.90;;;;;;6246008;23;20154;-88
2022/03/17 05:30:45;;;;;;;11.20;8.87;;;10.90;99.90;;;;;;6245399;23;20601;-89
2022/03/17 05:33:11;;;;;;;11.13;8.27;;;10.90;99.90;;;;;;6245911;23;20139;-88
2022/03/17 05:35:39;;;;;;;14.27;8.33;;;10.90;99.90;;;;;;6245596;22;20254;-88
2022/03/17 05:38:05;;;;;;;11.87;8.57;;;10.90;99.90;;;;;;6245553;23;20627;-88
2022/03/17 05:40:32;;;;;;;13.30;8.20;;;11.00;99.90;;;;;;6245383;23;20143;-88
2022/03/17 05:43:01;;;;;;;14.40;8.60;;;10.90;99.90;;;;;;6245931;23;20147;-88
2022/03/17 05:45:28;;;;;;;10.60;7.90;;;10.90;99.90;;;;;;6245187;23;20146;-87
2022/03/17 05:47:56;;;;;;;10.53;8.20;;;10.70;99.90;;;;;;6245830;23;20529;-88
2022/03/17 05:50:23;;;;;;;10.60;8.17;;;10.40;99.90;;;;;;6245379;23;20150;-87
2022/03/17 05:52:49;;;;;;;12.83;8.23;;;10.20;99.90;;;;;;6245479;23;20171;-89
2022/03/17 05:55:18;;;;;;;15.17;8.27;;;10.30;99.90;;;;;;6245582;23;20177;-88
2022/03/17 05:57:48;;;;;;;17.57;8.07;;;10.30;99.90;;;;;;6245270;23;20175;-88
2022/03/17 06:00:17;;;;;;;13.93;8.97;;;10.40;99.90;;;;;;6244561;23;20290;-88
2022/03/17 06:02:43;;;;;;;13.27;8.90;;;10.40;99.90;;;;;;6244774;23;20184;-88
2022/03/17 06:05:11;;;;;;;13.73;9.23;;;10.50;99.90;;;;;;6244988;23;20158;-88
2022/03/17 06:07:42;;;;;;;14.57;9.37;;;10.50;99.90;;;;;;6244951;23;20150;-88
2022/03/17 06:10:13;;;;;;;12.70;8.17;;;10.60;99.90;;;;;;6245067;23;20471;-88
2022/03/17 06:12:39;;;;;;;11.40;9.13;;;10.70;99.90;;;;;;6245233;23;20143;-88
2022/03/17 06:15:07;;;;;;;12.73;8.97;;;10.70;99.90;;;;;;6245355;23;20143;-88
2022/03/17 06:17:57;;;;;;;13.87;9.27;;;10.60;99.90;;;;;;6244727;23;20183;-87
2022/03/17 06:20:26;;;;;;;13.70;8.20;;;10.60;99.90;;;;;;6229698;23;20154;-88
2022/03/17 06:22:55;;;;;;;13.50;8.63;;;10.60;99.90;;;;;;6245645;23;20217;-88
2022/03/17 06:25:24;;;;;;;15.00;7.93;;;10.40;99.90;;;;;;6246594;23;20146;-86
2022/03/17 06:27:53;;;;;;;14.73;8.77;;;10.40;99.90;;;;;;6245427;23;20149;-88
2022/03/17 06:30:31;;;;;;;13.10;8.73;;;10.50;99.90;;;;;;6245858;23;20218;-88
2022/03/17 06:33:01;;;;;;;12.63;8.40;;;10.50;99.90;;;;;;6246652;23;20170;-88
2022/03/17 06:35:30;;;;;;;14.20;8.80;;;10.40;99.90;;;;;;6246230;22;20179;-88
2022/03/17 06:38:03;;;;;;;13.10;8.53;;;10.30;99.90;;;;;;6245472;23;20204;-88
2022/03/17 06:40:31;;;;;;;14.30;8.53;;;10.50;99.90;;;;;;6245203;23;20233;-88
2022/03/17 06:42:58;;;;;;;11.70;8.97;;;10.60;99.90;;;;;;6245208;23;20143;-91
2022/03/17 06:45:25;;;;;;;14.37;8.63;;;10.70;99.90;;;;;;6245548;23;20219;-88
2022/03/17 06:47:52;;;;;;;14.20;8.53;;;10.70;99.90;;;;;;6245536;23;20142;-88
2022/03/17 06:50:21;;;;;;;12.60;8.13;;;10.70;99.90;;;;;;6245465;23;20173;-87
2022/03/17 06:52:47;;;;;;;12.17;7.53;;;10.80;99.90;;;;;;6245380;23;20154;-90
2022/03/17 06:55:14;;;;;;;12.00;7.57;;;10.80;99.90;;;;;;6245553;23;20143;-85
2022/03/17 06:57:42;;;;;;;13.93;8.30;;;10.80;99.90;;;;;;6245022;23;20258;-88
2022/03/17 07:00:12;;;;;;;10.07;7.33;;;10.80;99.90;;;;;;6244923;23;20136;-87
2022/03/17 07:02:41;;;;;;;10.37;7.17;;;10.90;99.90;;;;;;6244906;23;20162;-89
2022/03/17 07:05:08;;;;;;;10.40;7.00;;;10.90;99.90;;;;;;6245976;23;20154;-88
2022/03/17 07:07:36;;;;;;;12.93;6.70;;;10.90;99.90;;;;;;6246017;23;20151;-88
2022/03/17 07:10:06;;;;;;;12.70;6.90;;;10.70;99.90;;;;;;6245162;23;20135;-89
2022/03/17 07:12:36;;;;;;;8.77;5.80;;;10.70;99.90;;;;;;6245024;23;20146;-85
2022/03/17 07:15:04;;;;;;;9.63;6.03;;;10.60;99.90;;;;;;6244312;23;20150;-86
2022/03/17 07:17:40;;;;;;;9.40;5.77;;;10.60;99.90;;;;;;6244445;23;20199;-87
2022/03/17 07:20:12;;;;;;;8.60;5.83;;;10.60;99.90;;;;;;6244583;23;20142;-87
2022/03/17 07:22:40;;;;;;;10.37;5.53;;;10.60;99.90;;;;;;6244253;23;20150;-86
2022/03/17 07:25:07;;;;;;;10.00;5.50;;;10.50;99.90;;;;;;6244562;23;20140;-86
2022/03/17 07:27:43;;;;;;;9.17;5.47;;;10.40;99.90;;;;;;6244065;23;20154;-86
2022/03/17 07:30:22;;;;;;;8.10;5.10;;;10.40;99.90;;;;;;6243732;23;20212;-86
2022/03/17 07:52:28;;;;;;;6.47;4.30;;;10.40;99.90;;;;;;6273669;22;20205;-84
2022/03/17 07:54:54;;;;;;;7.70;4.53;;;10.50;99.90;;;;;;6277588;22;20162;-84
2022/03/17 07:57:19;;;;;;;6.43;4.30;;;10.40;99.90;;;;;;6276554;22;20315;-84
2022/03/17 07:59:45;;;;;;;6.17;4.53;;;10.40;99.90;;;;;;6276399;22;20492;-83
2022/03/17 08:02:11;;;;;;;7.83;4.40;;;10.50;99.90;;;;;;6275921;22;20189;-84
2022/03/17 08:04:37;;;;;;;8.27;3.87;;;10.60;99.90;;;;;;6276328;22;20186;-84
2022/03/17 08:07:03;;;;;;;9.73;4.67;;;10.60;99.90;;;;;;6276084;22;20141;-84
2022/03/17 08:09:30;;;;;;;5.17;3.97;;;10.60;99.90;;;;;;6275872;22;20156;-84
2022/03/17 08:11:56;;;;;;;7.87;4.57;;;10.70;99.90;;;;;;6272384;22;20481;-84
2022/03/17 08:14:21;;;;;;;9.07;4.60;;;11.00;99.90;;;;;;6272246;22;20147;-84
2022/03/17 08:16:48;;;;;;;7.20;4.37;;;11.00;99.90;;;;;;6275111;22;20182;-84
2022/03/17 08:19:14;;;;;;;9.10;4.20;;;10.90;99.90;;;;;;6276297;22;20200;-84
2022/03/17 08:21:40;;;;;;;5.20;3.87;;;11.00;99.90;;;;;;6276302;22;20153;-84
2022/03/17 08:24:10;;;;;;;6.57;4.33;;;10.90;99.90;;;;;;6276289;22;20154;-85
2022/03/17 08:26:37;;;;;;;4.90;4.00;;;10.90;99.90;;;;;;6272008;22;20139;-85
2022/03/17 08:29:04;;;;;;;7.50;4.47;;;10.90;99.90;;;;;;6276425;22;20180;-84
2022/03/17 08:31:30;;;;;;;8.00;4.03;;;10.80;99.90;;;;;;6275270;22;20151;-84
2022/03/17 08:33:59;;;;;;;4.83;3.90;;;10.90;99.90;;;;;;6276250;22;20155;-84
2022/03/17 08:36:25;;;;;;;6.50;3.57;;;10.90;99.90;;;;;;6276410;22;20170;-84
2022/03/17 08:38:54;;;;;;;8.43;4.10;;;11.00;99.90;;;;;;6275769;22;20241;-85
2022/03/17 08:41:21;;;;;;;7.63;3.60;;;11.20;99.90;;;;;;6276900;22;20142;-85
2022/03/17 08:43:47;;;;;;;6.03;3.00;;;11.10;99.90;;;;;;6276020;22;20370;-85
2022/03/17 09:12:05;;;;;;;5.10;1.90;;;11.70;99.10;;;;;;6279396;22;20212;-87
2022/03/17 09:14:39;;;;;;;10.30;2.40;;;11.70;99.00;;;;;;6276244;22;20172;-87
2022/03/17 09:17:05;;;;;;;8.27;1.87;;;11.70;98.90;;;;;;6276855;22;20236;-85
2022/03/17 09:19:32;;;;;;;5.27;2.30;;;11.80;99.20;;;;;;6275782;22;20147;-86
2022/03/17 09:21:58;;;;;;;5.07;2.17;;;11.90;98.80;;;;;;6275986;22;20150;-85
2022/03/17 09:24:26;;;;;;;10.20;2.43;;;11.80;98.60;;;;;;6275288;22;20222;-86
2022/03/17 09:26:51;;;;;;;6.90;2.20;;;11.70;99.10;;;;;;6276250;22;20601;-86
2022/03/17 09:29:17;;;;;;;4.23;2.33;;;11.60;99.00;;;;;;6276160;22;20134;-86
2022/03/17 09:31:43;;;;;;;5.20;1.90;;;11.60;99.00;;;;;;6276295;22;20149;-86
2022/03/17 09:34:09;;;;;;;5.70;2.60;;;11.70;99.20;;;;;;6276404;22;20543;-86
2022/03/17 09:36:35;;;;;;;7.50;2.13;;;11.80;99.00;;;;;;6275742;22;20175;-86
2022/03/17 09:41:45;;;;;;;3.97;2.80;;;11.90;99.20;;;;;;6277740;22;20166;-85
2022/03/17 09:44:10;;;;;;;6.00;3.00;;;12.00;98.50;;;;;;6276402;22;20491;-86
2022/03/17 09:46:39;;;;;;;4.53;2.57;;;12.10;98.10;;;;;;6276074;22;20167;-86
2022/03/17 09:49:06;;;;;;;5.80;2.77;;;12.20;98.10;;;;;;6276080;22;20149;-86
2022/03/17 09:51:33;;;;;;;7.50;3.77;;;12.30;98.00;;;;;;6275875;22;20154;-86
2022/03/17 09:54:00;;;;;;;11.03;3.13;;;12.40;97.70;;;;;;6276221;22;20138;-86
2022/03/17 09:56:27;;;;;;;5.43;2.80;;;12.40;97.40;;;;;;6276223;22;20568;-86
2022/03/17 09:58:58;;;;;;;6.23;2.60;;;12.40;97.40;;;;;;6276165;22;20142;-86
2022/03/17 10:01:28;;;;;;;6.77;2.87;;;12.40;97.60;;;;;;6276009;22;20242;-87
2022/03/17 10:04:00;;;;;;;7.30;2.70;;;12.40;97.60;;;;;;6276585;22;20143;-86
2022/03/17 10:06:28;;;;;;;7.97;2.60;;;12.40;97.40;;;;;;6276681;22;20571;-86
2022/03/17 10:08:55;;;;;;;7.67;2.77;;;12.40;97.40;;;;;;6277785;22;20239;-86
2022/03/17 10:11:26;;;;;;;4.33;3.50;;;12.50;97.30;;;;;;6277721;22;20359;-86
2022/03/17 10:13:54;;;;;;;5.07;3.47;;;12.60;96.50;;;;;;6277049;22;20246;-86
2022/03/17 10:16:21;;;;;;;7.97;4.10;;;12.20;97.20;;;;;;6276626;22;20143;-86
2022/03/17 10:18:59;;;;;;;4.43;3.23;;;12.00;97.50;;;;;;6276298;22;20202;-86
2022/03/17 10:21:26;;;;;;;5.77;3.40;;;12.10;97.00;;;;;;6275321;22;20146;-86
2022/03/17 10:24:02;;;;;;;5.20;3.53;;;12.10;96.30;;;;;;6275830;22;20147;-86
2022/03/17 10:26:49;;;;;;;5.73;3.97;;;12.00;96.40;;;;;;6275857;22;20154;-86
2022/03/17 10:29:22;;;;;;;5.30;3.67;;;12.00;96.50;;;;;;6275810;22;20525;-86
2022/03/17 10:32:02;;;;;;;6.27;2.97;;;11.80;96.50;;;;;;6275622;22;20226;-85
2022/03/17 10:34:49;;;;;;;6.17;3.20;;;11.80;96.50;;;;;;6275696;22;20150;-85
2022/03/17 10:37:17;;;;;;;3.93;3.00;;;11.60;96.60;;;;;;6275503;22;20255;-86
2022/03/17 10:39:44;;;;;;;4.73;3.10;;;11.70;96.40;;;;;;6275507;22;20143;-86
2022/03/17 10:42:30;;;;;;;3.80;3.30;;;11.80;96.70;;;;;;6275839;22;20229;-87
2022/03/17 10:45:05;;;;;;;10.83;3.10;;;12.10;96.20;;;;;;6275236;22;20151;-86
2022/03/17 10:47:33;;;;;;;4.33;2.47;;;12.40;95.50;;;;;;6275492;22;20228;-86
2022/03/17 10:50:20;;;;;;;4.33;3.00;;;12.50;95.50;;;;;;6275150;22;20138;-86
2022/03/17 10:52:57;;;;;;;5.70;2.90;;;12.80;95.40;;;;;;6275501;22;20149;-86
2022/03/17 10:55:30;;;;;;;8.27;3.20;;;13.10;95.00;;;;;;6275597;22;20139;-86
2022/03/17 10:58:16;;;;;;;9.50;3.10;;;13.30;94.70;;;;;;6275346;22;20522;-86
2022/03/17 11:00:56;;;;;;;4.93;2.83;;;13.50;94.00;;;;;;6275497;22;20152;-86
2022/03/17 11:03:23;;;;;;;4.77;3.10;;;13.60;94.00;;;;;;6275089;22;20231;-86
2022/03/17 11:05:51;;;;;;;4.73;3.03;;;13.70;93.40;;;;;;6275194;22;20145;-86
2022/03/17 11:08:18;;;;;;;5.73;2.60;;;13.50;93.70;;;;;;6275707;22;20144;-86
2022/03/17 11:10:44;;;;;;;6.10;3.70;;;13.50;94.20;;;;;;6275569;22;20153;-86
2022/03/17 11:13:11;;;;;;;8.03;3.10;;;13.50;93.90;;;;;;6275061;22;20271;-87
2022/03/17 11:15:39;;;;;;;4.93;3.10;;;13.40;93.80;;;;;;6275567;22;20144;-86
2022/03/17 11:18:14;;;;;;;5.47;3.00;;;13.30;94.00;;;;;;6274812;22;20631;-86
2022/03/17 11:20:40;;;;;;;5.60;2.80;;;13.30;94.10;;;;;;6275312;22;20281;-88
2022/03/17 11:23:11;;;;;;;7.97;2.90;;;13.40;94.30;;;;;;6274759;22;20568;-86
2022/03/17 11:25:37;;;;;;;4.47;2.90;;;13.50;94.00;;;;;;6275539;22;20145;-86
2022/03/17 11:28:04;;;;;;;7.90;3.20;;;13.50;93.80;;;;;;6275175;22;20226;-86
2022/03/17 11:30:42;;;;;;;6.93;3.10;;;13.30;94.20;;;;;;6275507;22;20207;-86
2022/03/17 11:33:43;;;;;;;6.13;2.90;;;13.40;94.50;;;;;;6274913;22;20521;-87
2022/03/17 11:36:08;;;;;;;5.30;3.00;;;13.80;93.80;;;;;;6195164;22;20182;-88
2022/03/17 11:38:39;;;;;;;4.80;3.00;;;13.70;93.50;;;;;;6274909;22;20529;-84
2022/03/17 11:41:09;;;;;;;4.93;3.10;;;13.70;93.40;;;;;;6275080;22;20173;-86
2022/03/17 11:43:47;;;;;;;5.27;2.80;;;13.70;93.60;;;;;;6275053;22;20156;-86
2022/03/17 11:46:21;;;;;;;4.10;2.87;;;13.70;93.60;;;;;;6275407;22;20148;-86
2022/03/17 11:48:51;;;;;;;7.00;2.80;;;13.80;93.90;;;;;;6274859;22;20175;-86
2022/03/17 11:51:18;;;;;;;6.57;3.33;;;14.10;93.30;;;;;;6275360;22;20146;-86
2022/03/17 11:54:02;;;;;;;6.80;3.07;;;14.20;92.90;;;;;;6275133;22;20150;-86
2022/03/17 11:56:32;;;;;;;10.67;3.20;;;14.40;92.70;;;;;;6275311;22;20142;-88
2022/03/17 11:58:58;;;;;;;6.73;2.77;;;14.50;92.30;;;;;;6274989;22;20154;-88
2022/03/17 12:01:32;;;;;;;4.57;2.53;;;14.50;92.00;;;;;;6275000;22;20170;-88
2022/03/17 12:04:05;;;;;;;5.50;2.60;;;14.40;91.80;;;;;;6275586;22;20572;-85
2022/03/17 12:06:33;;;;;;;3.77;2.80;;;14.50;92.40;;;;;;6275809;22;20145;-86
2022/03/17 12:09:08;;;;;;;8.60;3.77;;;14.70;92.60;;;;;;6274999;22;20150;-86
2022/03/17 12:11:47;;;;;;;5.60;3.57;;;14.80;91.90;;;;;;6275032;22;20156;-86
2022/03/17 12:14:19;;;;;;;6.43;3.20;;;14.80;91.10;;;;;;6275024;22;20146;-86
2022/03/17 12:16:58;;;;;;;5.07;3.20;;;14.70;90.80;;;;;;6249426;22;20647;-86
2022/03/17 12:19:37;;;;;;;5.70;3.10;;;14.80;91.10;;;;;;6274870;22;20267;-86
2022/03/17 12:22:05;;;;;;;3.67;3.27;;;14.90;91.10;;;;;;6275167;22;20157;-87
2022/03/17 12:24:46;;;;;;;5.47;3.30;;;15.20;90.50;;;;;;6274985;22;20154;-87
2022/03/17 12:27:23;;;;;;;6.17;3.50;;;15.30;90.00;;;;;;6274990;22;20208;-86
2022/03/17 12:29:55;;;;;;;4.73;3.03;;;15.00;90.60;;;;;;6274971;22;20169;-86
2022/03/17 12:32:22;;;;;;;5.40;2.90;;;15.00;90.90;;;;;;6274978;22;20144;-86
2022/03/17 12:34:50;;;;;;;6.20;3.53;;;15.20;90.70;;;;;;6276252;22;20148;-86
2022/03/17 12:37:17;;;;;;;4.50;2.67;;;15.50;90.30;;;;;;6276616;22;20185;-86
2022/03/17 12:39:55;;;;;;;4.87;2.87;;;15.70;89.80;;;;;;6276785;22;20224;-87
2022/03/17 12:42:32;;;;;;;5.73;2.70;;;16.00;89.20;;;;;;6277077;22;20216;-86
2022/03/17 12:45:02;;;;;;;4.87;2.70;;;16.10;88.50;;;;;;6276131;22;20197;-86
2022/03/17 12:47:29;;;;;;;5.13;2.73;;;16.20;87.30;;;;;;6276885;22;20149;-86
2022/03/17 12:49:57;;;;;;;4.17;2.57;;;16.20;87.40;;;;;;6276416;22;20572;-86
2022/03/17 12:52:30;;;;;;;7.67;2.77;;;16.30;86.90;;;;;;6276957;22;20147;-86
2022/03/17 12:54:57;;;;;;;4.30;2.50;;;16.20;87.20;;;;;;6276118;22;20157;-86
2022/03/17 12:57:31;;;;;;;4.83;2.90;;;16.20;87.30;;;;;;6276582;22;20241;-86
2022/03/17 12:59:58;;;;;;;5.27;3.00;;;16.20;88.00;;;;;;6276085;22;20154;-87
2022/03/17 13:02:24;;;;;;;6.53;3.10;;;16.30;87.40;;;;;;6276692;22;20148;-86
2022/03/17 13:04:54;;;;;;;6.67;3.07;;;16.40;87.30;;;;;;6276405;22;20145;-86
2022/03/17 13:07:22;;;;;;;3.77;2.83;;;16.50;86.80;;;;;;6276686;22;20150;-87
2022/03/17 13:09:48;;;;;;;3.83;3.00;;;16.50;86.80;;;;;;6276240;22;20199;-86
2022/03/17 13:15:14;;;;;;;4.63;2.93;;;16.60;87.20;;;;;;6277621;22;20153;-87
2022/03/17 13:17:44;;;;;;;8.97;3.17;;;16.50;87.40;;;;;;6276171;22;20179;-87
2022/03/17 13:20:20;;;;;;;7.13;3.07;;;16.50;86.60;;;;;;6276303;22;20187;-86
2022/03/17 13:22:56;;;;;;;4.80;3.03;;;16.60;86.80;;;;;;6276601;22;20153;-86
2022/03/17 13:25:22;;;;;;;7.20;3.70;;;16.60;86.10;;;;;;6276272;22;20149;-86
2022/03/17 13:27:58;;;;;;;6.70;3.53;;;16.30;87.60;;;;;;6276383;22;20196;-86
2022/03/17 13:30:25;;;;;;;6.73;4.20;;;16.30;87.40;;;;;;6275937;22;20146;-86
2022/03/17 13:33:03;;;;;;;4.20;3.30;;;16.30;87.60;;;;;;6276342;22;20181;-86
2022/03/17 13:35:38;;;;;;;5.10;3.43;;;16.50;87.30;;;;;;6276096;22;20171;-87
2022/03/17 13:38:08;;;;;;;6.13;3.70;;;16.50;86.10;;;;;;6276069;22;20189;-86
2022/03/17 13:40:40;;;;;;;6.57;3.87;;;16.40;86.00;;;;;;6276219;22;20149;-86
2022/03/17 13:43:06;;;;;;;4.27;3.17;;;16.30;86.60;;;;;;6275506;22;20489;-86
2022/03/17 13:45:40;;;;;;;8.23;3.30;;;16.30;86.50;;;;;;6275624;22;20170;-86
2022/03/17 13:48:14;;;;;;;4.83;2.80;;;16.20;85.20;;;;;;6276163;22;20161;-86
2022/03/17 13:50:43;;;;;;;4.97;3.10;;;16.20;85.70;;;;;;6276204;22;20143;-87